Time;durP1;ratioP1;P1;durP2;ratioP2;P2;SDS_P1;SDS_P2;PMS_P1;PMS_P2;Temp;Humidity;BMP_temperature;BMP_pressure;BME280_temperature;BME280_humidity;BME280_pressure;Samples;Min_cycle;Max_cycle;Signal;HPM_P1;HPM_P2
2023/08/30 00:00:25;;;;;;;16.37;15.07;;;14.10;99.90;;;;;;4978455;28;20457;-80
2023/08/30 00:03:00;;;;;;;15.90;14.60;;;14.10;99.90;;;;;;4978241;28;20457;-79
2023/08/30 00:05:33;;;;;;;17.47;15.87;;;14.10;99.90;;;;;;4978089;28;20842;-79
2023/08/30 00:08:09;;;;;;;16.83;15.63;;;14.10;99.90;;;;;;4977735;28;20496;-78
2023/08/30 00:10:38;;;;;;;17.23;15.90;;;14.10;99.90;;;;;;4981015;28;20457;-79
2023/08/30 00:13:19;;;;;;;15.43;14.13;;;14.10;99.90;;;;;;4983195;28;20500;-79
2023/08/30 00:15:53;;;;;;;16.90;15.33;;;14.10;99.90;;;;;;4984268;28;20463;-79
2023/08/30 00:18:23;;;;;;;15.60;14.30;;;14.20;99.90;;;;;;4985361;28;20492;-80
2023/08/30 00:21:11;;;;;;;16.27;14.87;;;14.10;99.90;;;;;;4989885;28;20505;-78
2023/08/30 00:23:43;;;;;;;15.03;13.83;;;14.10;99.90;;;;;;4988530;28;20488;-78
2023/08/30 00:26:13;;;;;;;15.63;14.43;;;14.10;99.90;;;;;;4987877;28;20456;-80
2023/08/30 00:28:44;;;;;;;14.53;13.30;;;14.10;99.90;;;;;;4990144;28;20433;-80
2023/08/30 00:31:16;;;;;;;15.40;14.07;;;14.10;99.90;;;;;;4988026;28;20453;-80
2023/08/30 00:33:48;;;;;;;14.40;13.33;;;14.10;99.90;;;;;;4987757;28;20525;-80
2023/08/30 00:36:25;;;;;;;14.93;13.60;;;14.00;99.90;;;;;;4987677;28;20495;-80
2023/08/30 00:39:05;;;;;;;14.23;13.13;;;14.10;99.90;;;;;;4984076;28;20429;-79
2023/08/30 00:41:42;;;;;;;14.00;12.90;;;14.00;99.90;;;;;;4988697;28;20543;-79
2023/08/30 00:44:13;;;;;;;15.03;13.70;;;14.00;99.90;;;;;;4987396;28;20466;-79
2023/08/30 00:46:46;;;;;;;14.53;13.53;;;14.00;99.90;;;;;;4987238;28;20472;-79
2023/08/30 00:49:16;;;;;;;14.33;13.30;;;14.00;99.90;;;;;;4985069;28;20464;-79
2023/08/30 00:51:47;;;;;;;15.27;13.97;;;14.00;99.90;;;;;;4984850;28;20453;-79
2023/08/30 00:54:17;;;;;;;15.57;14.40;;;14.00;99.90;;;;;;4985573;28;20516;-81
2023/08/30 00:56:55;;;;;;;15.33;14.23;;;14.30;99.90;;;;;;4984657;28;20469;-80
2023/08/30 00:59:25;;;;;;;13.53;12.63;;;13.90;99.90;;;;;;4985944;28;20527;-78
2023/08/30 01:01:57;;;;;;;14.30;13.10;;;13.90;99.90;;;;;;4984365;28;20438;-79
2023/08/30 01:04:40;;;;;;;13.87;12.67;;;14.00;99.90;;;;;;4984961;28;20524;-79
2023/08/30 01:07:17;;;;;;;14.20;12.77;;;14.00;99.90;;;;;;4984845;28;20480;-79
2023/08/30 01:10:01;;;;;;;12.23;11.27;;;14.00;99.90;;;;;;4987121;28;20456;-80
2023/08/30 01:12:38;;;;;;;12.60;11.60;;;13.90;99.90;;;;;;4986459;28;20476;-79
2023/08/30 01:15:17;;;;;;;11.33;10.53;;;14.00;99.90;;;;;;4983346;28;20460;-78
2023/08/30 01:17:56;;;;;;;12.20;11.20;;;14.00;99.90;;;;;;4985579;28;20488;-80
2023/08/30 01:20:49;;;;;;;12.23;11.23;;;13.90;99.90;;;;;;4986821;28;20484;-80
2023/08/30 01:23:40;;;;;;;11.17;10.37;;;14.00;99.90;;;;;;4985609;28;20484;-79
2023/08/30 01:26:29;;;;;;;11.83;11.10;;;13.90;99.90;;;;;;4986495;28;20464;-78
2023/08/30 01:29:21;;;;;;;12.63;11.73;;;13.90;99.90;;;;;;4990576;28;20454;-80
2023/08/30 01:32:08;;;;;;;12.47;11.40;;;14.00;99.90;;;;;;4991965;28;20457;-79
2023/08/30 01:34:41;;;;;;;11.77;10.97;;;14.00;99.90;;;;;;4990578;28;20441;-78
2023/08/30 01:37:17;;;;;;;12.63;11.53;;;14.00;99.90;;;;;;4990339;28;20999;-79
2023/08/30 01:39:59;;;;;;;12.67;11.77;;;14.10;99.90;;;;;;4992707;28;20445;-80
2023/08/30 01:42:37;;;;;;;12.27;11.37;;;14.00;99.90;;;;;;4986519;28;20456;-78
2023/08/30 01:45:19;;;;;;;14.27;13.17;;;13.90;99.90;;;;;;4988870;28;20517;-78
2023/08/30 01:48:02;;;;;;;12.93;11.93;;;13.90;99.90;;;;;;4988705;28;20477;-80
2023/08/30 01:50:34;;;;;;;12.40;11.57;;;13.90;99.90;;;;;;4988761;28;21023;-78
2023/08/30 01:53:17;;;;;;;12.70;11.90;;;13.80;99.90;;;;;;4985438;28;20531;-78
2023/08/30 01:55:57;;;;;;;12.97;11.87;;;13.80;99.90;;;;;;4988686;28;20460;-78
2023/08/30 01:58:32;;;;;;;13.53;12.53;;;13.80;99.90;;;;;;4987504;28;20487;-78
2023/08/30 02:04:08;;;;;;;12.77;11.87;;;13.70;99.90;;;;;;4984258;28;20972;-78
2023/08/30 02:07:06;;;;;;;13.23;12.23;;;13.70;99.90;;;;;;4982263;28;20552;-80
2023/08/30 02:09:47;;;;;;;13.30;12.00;;;13.70;99.90;;;;;;4980354;28;20464;-78
2023/08/30 02:12:21;;;;;;;12.67;11.70;;;13.60;99.90;;;;;;4984085;28;21017;-79
2023/08/30 02:14:57;;;;;;;12.67;11.77;;;13.60;99.90;;;;;;4981917;28;20493;-79
2023/08/30 02:17:32;;;;;;;13.27;12.17;;;13.60;99.90;;;;;;4982860;28;20926;-80
2023/08/30 02:20:13;;;;;;;13.40;12.50;;;13.60;99.90;;;;;;4983299;28;20509;-80
2023/08/30 02:22:44;;;;;;;14.00;12.80;;;13.50;99.90;;;;;;4980879;28;20894;-78
2023/08/30 02:25:23;;;;;;;13.27;12.03;;;13.50;99.90;;;;;;4981695;28;20449;-78
2023/08/30 02:27:58;;;;;;;13.33;12.40;;;13.50;99.90;;;;;;4981926;28;20487;-81
2023/08/30 02:30:37;;;;;;;12.97;12.07;;;13.60;99.90;;;;;;4979904;28;20965;-79
2023/08/30 02:33:15;;;;;;;13.50;12.40;;;13.50;99.90;;;;;;4979732;28;20477;-81
2023/08/30 02:35:53;;;;;;;13.93;12.93;;;13.60;99.90;;;;;;4979425;28;20429;-80
2023/08/30 02:38:27;;;;;;;13.00;11.90;;;13.60;99.90;;;;;;4978687;28;20485;-80
2023/08/30 02:41:06;;;;;;;13.37;12.37;;;13.60;99.90;;;;;;4979054;28;20461;-79
2023/08/30 02:43:38;;;;;;;14.57;13.30;;;13.60;99.90;;;;;;4978567;28;20453;-80
2023/08/30 02:46:07;;;;;;;13.70;12.70;;;13.50;99.90;;;;;;4976256;28;20563;-81
2023/08/30 02:48:51;;;;;;;13.27;12.37;;;13.50;99.90;;;;;;4977268;28;20509;-81
2023/08/30 02:51:25;;;;;;;13.37;12.33;;;13.50;99.90;;;;;;4976082;28;20508;-78
2023/08/30 02:54:08;;;;;;;13.53;12.40;;;13.50;99.90;;;;;;4977568;28;20535;-79
2023/08/30 02:56:59;;;;;;;13.77;12.77;;;13.40;99.90;;;;;;4981182;28;20540;-79
2023/08/30 02:59:31;;;;;;;14.00;12.77;;;13.40;99.90;;;;;;4977910;28;20492;-79
2023/08/30 03:02:06;;;;;;;13.20;12.10;;;13.40;99.90;;;;;;4976250;28;20531;-80
2023/08/30 03:04:35;;;;;;;13.90;12.60;;;13.40;99.90;;;;;;4979203;28;20492;-80
2023/08/30 03:07:03;;;;;;;12.93;11.93;;;13.50;99.90;;;;;;4977051;28;20883;-79
2023/08/30 03:09:38;;;;;;;13.60;12.50;;;13.30;99.90;;;;;;4976642;28;20540;-79
2023/08/30 03:12:10;;;;;;;12.60;11.70;;;13.30;99.90;;;;;;4976992;28;20452;-79
2023/08/30 03:14:48;;;;;;;13.37;12.47;;;13.30;99.90;;;;;;4976281;28;20568;-78
2023/08/30 03:17:46;;;;;;;13.20;12.30;;;13.30;99.90;;;;;;4977625;28;20476;-81
2023/08/30 03:20:40;;;;;;;13.73;12.77;;;13.30;99.90;;;;;;4981966;28;20492;-81
2023/08/30 03:23:18;;;;;;;12.73;11.73;;;13.30;99.90;;;;;;4984564;28;20449;-82
2023/08/30 03:25:54;;;;;;;13.00;12.10;;;13.30;99.90;;;;;;4981874;28;20840;-79
2023/08/30 03:28:28;;;;;;;15.23;14.03;;;13.30;99.90;;;;;;4980204;28;20445;-77
2023/08/30 03:31:00;;;;;;;14.03;12.93;;;13.30;99.90;;;;;;4977984;28;20453;-79
2023/08/30 03:33:36;;;;;;;13.60;12.53;;;13.20;99.90;;;;;;4979134;28;20444;-78
2023/08/30 03:38:52;;;;;;;14.60;13.50;;;13.20;99.90;;;;;;4977173;28;20477;-80
2023/08/30 03:41:25;;;;;;;14.27;13.17;;;13.20;99.90;;;;;;4977828;28;20453;-80
2023/08/30 03:44:00;;;;;;;15.13;13.87;;;13.20;99.90;;;;;;4977051;28;20909;-79
2023/08/30 03:46:35;;;;;;;13.60;12.63;;;13.20;99.90;;;;;;4976618;28;20484;-78
2023/08/30 03:49:16;;;;;;;12.63;11.73;;;13.20;99.90;;;;;;4976452;28;20440;-79
2023/08/30 03:52:07;;;;;;;13.70;12.70;;;13.30;99.90;;;;;;4976713;28;20949;-80
2023/08/30 03:54:41;;;;;;;14.20;13.20;;;13.30;99.90;;;;;;4972582;28;20993;-78
2023/08/30 04:00:08;;;;;;;13.67;12.50;;;13.30;99.90;;;;;;5011547;28;20484;-79
2023/08/30 04:02:48;;;;;;;14.80;13.30;;;13.30;99.90;;;;;;5017736;28;20447;-79
2023/08/30 04:05:45;;;;;;;13.70;12.70;;;13.30;99.90;;;;;;5018237;28;20439;-83
2023/08/30 04:08:21;;;;;;;13.07;12.07;;;13.30;99.90;;;;;;5018643;28;20471;-82
2023/08/30 04:11:15;;;;;;;13.47;12.50;;;13.30;99.90;;;;;;5025061;28;20537;-80
2023/08/30 04:13:47;;;;;;;15.37;14.17;;;13.30;99.90;;;;;;5021589;28;20553;-81
2023/08/30 04:16:25;;;;;;;15.13;13.77;;;13.30;99.90;;;;;;5017649;28;20514;-79
2023/08/30 04:18:57;;;;;;;14.30;13.00;;;13.30;99.90;;;;;;5019502;28;20580;-81
2023/08/30 04:21:30;;;;;;;13.93;12.97;;;13.50;99.90;;;;;;5018242;28;20456;-78
2023/08/30 04:23:59;;;;;;;13.90;12.90;;;13.30;99.90;;;;;;5024283;28;20490;-78
2023/08/30 04:26:27;;;;;;;15.03;13.67;;;13.20;99.90;;;;;;5021691;28;20561;-80
2023/08/30 04:28:58;;;;;;;14.87;13.77;;;13.30;99.90;;;;;;5014812;28;20543;-82
2023/08/30 04:31:27;;;;;;;15.50;14.20;;;13.30;99.90;;;;;;5013033;28;20873;-78
2023/08/30 04:33:59;;;;;;;13.73;12.63;;;13.30;99.90;;;;;;5014749;28;20532;-78
2023/08/30 04:36:30;;;;;;;14.40;13.30;;;13.70;99.90;;;;;;5015272;28;20460;-79
2023/08/30 04:39:05;;;;;;;14.40;13.30;;;13.40;99.90;;;;;;5015378;28;20533;-80
2023/08/30 04:41:35;;;;;;;15.47;14.03;;;13.40;99.90;;;;;;5014058;28;20455;-78
2023/08/30 04:44:12;;;;;;;14.87;13.77;;;13.40;99.90;;;;;;5016864;28;20479;-80
2023/08/30 04:46:51;;;;;;;14.23;13.13;;;13.40;99.90;;;;;;5015513;28;20478;-82
2023/08/30 04:49:20;;;;;;;13.23;12.13;;;13.40;99.90;;;;;;4999535;28;20439;-80
2023/08/30 04:51:49;;;;;;;14.70;13.40;;;13.40;99.90;;;;;;5014548;28;20465;-78
2023/08/30 04:54:22;;;;;;;14.40;13.40;;;13.40;99.90;;;;;;5014520;28;20452;-77
2023/08/30 04:57:15;;;;;;;14.23;13.07;;;13.40;99.90;;;;;;5019380;28;20550;-80
2023/08/30 04:59:52;;;;;;;14.10;13.00;;;13.40;99.90;;;;;;5028988;28;20479;-81
2023/08/30 05:02:21;;;;;;;14.47;13.27;;;13.40;99.90;;;;;;5028443;28;20443;-79
2023/08/30 05:05:05;;;;;;;15.00;13.80;;;13.50;99.90;;;;;;5025837;28;20463;-80
2023/08/30 05:07:46;;;;;;;15.17;13.90;;;13.50;99.90;;;;;;5027907;28;20463;-79
2023/08/30 05:10:34;;;;;;;15.23;14.03;;;13.50;99.90;;;;;;5029657;28;20447;-79
2023/08/30 05:13:35;;;;;;;14.10;13.00;;;13.40;99.90;;;;;;5024022;28;20451;-81
2023/08/30 05:18:58;;;;;;;14.80;13.50;;;13.50;99.90;;;;;;5017854;28;20482;-82
2023/08/30 05:21:32;;;;;;;14.97;13.87;;;13.60;99.90;;;;;;5020604;28;20522;-80
2023/08/30 05:24:18;;;;;;;14.83;13.63;;;13.60;99.90;;;;;;5024080;28;20456;-81
2023/08/30 05:26:52;;;;;;;14.63;13.53;;;13.60;99.90;;;;;;5024577;28;20481;-81
2023/08/30 05:29:26;;;;;;;15.30;13.93;;;13.60;99.90;;;;;;5023268;28;20448;-81
2023/08/30 05:31:55;;;;;;;14.33;13.20;;;13.60;99.90;;;;;;5023037;28;20447;-80
2023/08/30 05:34:38;;;;;;;15.80;14.70;;;13.60;99.90;;;;;;5021487;28;20868;-78
2023/08/30 05:37:17;;;;;;;13.67;12.57;;;13.60;99.90;;;;;;5025111;28;20467;-80
2023/08/30 05:40:15;;;;;;;12.77;11.73;;;13.60;99.90;;;;;;5025385;28;20533;-79
2023/08/30 05:43:04;;;;;;;14.40;13.30;;;13.60;99.90;;;;;;5019383;28;20448;-79
2023/08/30 05:46:15;;;;;;;;;;;;;;;;;;;;;
2023/08/30 05:49:18;;;;;;;17.33;15.70;;;13.70;99.90;;;;;;5001184;28;20519;-80
2023/08/30 05:52:16;;;;;;;13.50;12.47;;;13.70;99.90;;;;;;5014216;28;20458;-80
2023/08/30 05:54:55;;;;;;;13.57;12.27;;;13.80;99.90;;;;;;5021167;28;20448;-80
2023/08/30 05:57:25;;;;;;;13.77;12.67;;;13.80;99.90;;;;;;5023533;28;20491;-79
2023/08/30 05:59:54;;;;;;;12.87;11.97;;;13.80;99.90;;;;;;5025416;28;20483;-83
2023/08/30 06:02:43;;;;;;;13.10;12.10;;;13.90;99.90;;;;;;5028247;28;20443;-80
2023/08/30 06:05:11;;;;;;;14.10;12.90;;;13.90;99.90;;;;;;5030638;28;20502;-81
2023/08/30 06:07:38;;;;;;;16.53;15.30;;;13.90;99.90;;;;;;5028088;28;20451;-81
2023/08/30 06:10:19;;;;;;;13.30;12.33;;;14.20;99.90;;;;;;5029173;28;20451;-79
2023/08/30 06:12:58;;;;;;;13.60;12.30;;;14.00;99.90;;;;;;5032466;28;20455;-80
2023/08/30 06:15:29;;;;;;;13.17;12.27;;;14.00;99.90;;;;;;5024609;28;20451;-80
2023/08/30 06:18:24;;;;;;;12.73;11.73;;;14.00;99.90;;;;;;5024723;28;20471;-79
2023/08/30 06:21:03;;;;;;;12.40;11.37;;;14.00;99.90;;;;;;5026626;28;20617;-80
2023/08/30 06:23:44;;;;;;;13.00;11.90;;;14.00;99.90;;;;;;5031170;28;20462;-79
2023/08/30 06:26:32;;;;;;;13.53;12.43;;;14.00;99.90;;;;;;5035367;28;20471;-79
2023/08/30 06:29:11;;;;;;;11.90;10.90;;;14.10;99.90;;;;;;5032336;28;20518;-81
2023/08/30 06:31:58;;;;;;;11.77;10.67;;;14.10;99.90;;;;;;5034194;28;20435;-79
2023/08/30 06:34:28;;;;;;;12.47;11.37;;;14.10;99.90;;;;;;5034671;28;20466;-79
2023/08/30 06:37:05;;;;;;;13.47;11.80;;;14.10;99.90;;;;;;5029743;28;20471;-80
2023/08/30 06:39:40;;;;;;;12.50;11.60;;;14.20;99.90;;;;;;5026544;28;20490;-78
2023/08/30 06:42:18;;;;;;;11.50;10.60;;;14.20;99.90;;;;;;5032048;28;20519;-82
2023/08/30 06:44:58;;;;;;;11.30;10.40;;;14.30;99.90;;;;;;5028860;28;20450;-80
2023/08/30 06:47:28;;;;;;;10.40;9.60;;;14.30;99.90;;;;;;5027097;28;20467;-81
2023/08/30 06:50:11;;;;;;;10.80;10.00;;;14.40;99.90;;;;;;5027011;28;20443;-82
2023/08/30 06:52:49;;;;;;;10.03;9.30;;;14.50;99.90;;;;;;5021282;28;20451;-80
2023/08/30 06:55:18;;;;;;;11.37;10.37;;;14.50;99.90;;;;;;5023452;28;20460;-80
2023/08/30 06:57:53;;;;;;;11.40;10.60;;;14.60;99.90;;;;;;5023065;28;20479;-81
2023/08/30 07:00:26;;;;;;;12.33;11.10;;;14.60;99.90;;;;;;5020406;28;20482;-80
2023/08/30 07:03:01;;;;;;;11.03;10.23;;;14.70;99.90;;;;;;5020188;28;20501;-81
2023/08/30 07:05:35;;;;;;;10.03;9.23;;;14.70;99.90;;;;;;5023200;28;20448;-82
2023/08/30 07:08:20;;;;;;;9.80;8.93;;;14.70;99.90;;;;;;5025477;28;20475;-79
2023/08/30 07:10:56;;;;;;;10.17;9.40;;;14.70;99.90;;;;;;5024152;28;20486;-82
2023/08/30 07:13:37;;;;;;;10.00;9.20;;;14.80;99.90;;;;;;5023575;28;20462;-80
2023/08/30 07:16:07;;;;;;;9.00;8.30;;;14.70;99.90;;;;;;5022178;28;20439;-80
2023/08/30 07:18:41;;;;;;;10.47;9.77;;;14.80;99.90;;;;;;5023050;28;20452;-80
2023/08/30 07:21:29;;;;;;;9.60;8.90;;;14.80;99.90;;;;;;5023042;28;20478;-79
2023/08/30 07:24:01;;;;;;;9.50;8.80;;;14.90;99.90;;;;;;5022348;28;20543;-83
2023/08/30 07:26:32;;;;;;;10.17;9.37;;;14.90;99.90;;;;;;5016498;28;20473;-78
2023/08/30 07:29:10;;;;;;;9.07;8.47;;;14.90;99.90;;;;;;5020424;28;20444;-78
2023/08/30 07:31:42;;;;;;;10.17;9.37;;;15.00;99.90;;;;;;5023794;28;20454;-78
2023/08/30 07:34:22;;;;;;;9.30;8.60;;;14.90;99.90;;;;;;5018097;28;20447;-79
2023/08/30 07:37:04;;;;;;;10.90;9.80;;;14.90;99.90;;;;;;5017931;28;20521;-78
2023/08/30 07:39:39;;;;;;;10.17;9.40;;;15.20;99.90;;;;;;5019066;28;21077;-79
2023/08/30 07:42:09;;;;;;;12.37;11.33;;;15.00;99.90;;;;;;5022616;28;20813;-79
2023/08/30 07:44:43;;;;;;;11.97;10.97;;;15.00;99.90;;;;;;5021980;28;20527;-79
2023/08/30 07:47:24;;;;;;;11.93;11.03;;;15.10;99.90;;;;;;5023563;28;20800;-79
2023/08/30 07:49:59;;;;;;;10.47;9.87;;;15.20;99.90;;;;;;5025218;28;20909;-79
2023/08/30 07:52:33;;;;;;;11.33;10.43;;;15.20;99.90;;;;;;5026965;28;20430;-79
2023/08/30 07:55:03;;;;;;;11.50;10.70;;;15.30;99.90;;;;;;5028669;28;20520;-80
2023/08/30 07:57:41;;;;;;;15.03;13.93;;;15.40;99.90;;;;;;5029009;28;20499;-77
2023/08/30 08:00:23;;;;;;;13.57;12.47;;;15.40;99.90;;;;;;5027703;28;20540;-81
2023/08/30 08:03:04;;;;;;;10.07;9.30;;;15.40;99.90;;;;;;5025889;28;20450;-80
2023/08/30 08:05:45;;;;;;;9.53;8.93;;;15.50;99.90;;;;;;5025007;28;20431;-80
2023/08/30 08:08:20;;;;;;;9.47;8.60;;;15.50;99.90;;;;;;5025203;28;20856;-79
2023/08/30 08:10:56;;;;;;;7.80;7.20;;;15.60;99.90;;;;;;5015303;28;20443;-79
2023/08/30 08:13:38;;;;;;;8.07;7.37;;;15.70;99.90;;;;;;5015193;28;20454;-79
2023/08/30 08:16:14;;;;;;;7.93;7.43;;;15.80;99.90;;;;;;5018406;28;20475;-80
2023/08/30 08:22:03;;;;;;;8.10;7.50;;;15.70;99.90;;;;;;5019477;28;20452;-79
2023/08/30 08:24:45;;;;;;;8.57;7.97;;;15.80;99.90;;;;;;4992082;28;20471;-80
2023/08/30 08:30:21;;;;;;;7.23;6.60;;;16.00;99.90;;;;;;4994079;28;20444;-80
2023/08/30 08:33:19;;;;;;;7.80;7.23;;;16.10;99.90;;;;;;4994406;28;20518;-81
2023/08/30 08:36:10;;;;;;;6.83;6.33;;;16.10;99.90;;;;;;4992727;28;20452;-81
2023/08/30 08:38:48;;;;;;;8.73;7.60;;;16.20;99.90;;;;;;4993830;28;20510;-79
2023/08/30 08:44:21;;;;;;;7.53;6.90;;;16.00;99.90;;;;;;5000028;28;20455;-80
2023/08/30 08:46:56;;;;;;;7.70;7.17;;;16.10;99.90;;;;;;5010616;28;20464;-79
2023/08/30 08:49:31;;;;;;;7.30;6.67;;;16.30;99.90;;;;;;4998037;28;20490;-80
2023/08/30 08:52:03;;;;;;;7.43;6.83;;;16.50;99.90;;;;;;4997241;28;20979;-79
2023/08/30 08:54:45;;;;;;;7.20;6.70;;;16.60;99.90;;;;;;5003042;28;20943;-80
2023/08/30 08:57:25;;;;;;;7.43;6.90;;;16.80;99.90;;;;;;5017697;28;21081;-78
2023/08/30 08:59:57;;;;;;;6.90;6.50;;;17.00;99.90;;;;;;5009361;28;20475;-79
2023/08/30 09:02:40;;;;;;;7.63;6.90;;;17.30;99.90;;;;;;5019431;28;20451;-80
2023/08/30 09:11:06;;;;;;;6.57;5.97;;;17.60;99.90;;;;;;4996643;28;20480;-77
2023/08/30 09:13:43;;;;;;;6.07;5.57;;;17.70;99.90;;;;;;4997478;28;20952;-77
2023/08/30 09:16:36;;;;;;;6.20;5.80;;;17.70;99.90;;;;;;4999787;28;20463;-79
2023/08/30 09:19:30;;;;;;;5.20;4.90;;;17.90;99.90;;;;;;5000079;28;20452;-80
2023/08/30 09:22:34;;;;;;;5.90;5.50;;;17.90;99.90;;;;;;5004926;28;21030;-79
2023/08/30 09:25:29;;;;;;;5.60;5.10;;;17.80;99.90;;;;;;5022842;28;20444;-79
2023/08/30 09:28:21;;;;;;;6.77;6.27;;;18.30;99.90;;;;;;5020318;28;20467;-80
2023/08/30 09:30:53;;;;;;;5.83;5.50;;;18.50;99.90;;;;;;5018094;28;20562;-79
2023/08/30 09:33:31;;;;;;;5.97;5.50;;;18.90;99.90;;;;;;5026171;28;20443;-79
2023/08/30 09:36:22;;;;;;;5.53;5.13;;;19.10;99.90;;;;;;5011716;28;20466;-81
2023/08/30 09:38:58;;;;;;;4.90;4.60;;;19.40;99.90;;;;;;5024418;28;20448;-81
2023/08/30 09:41:30;;;;;;;4.07;3.87;;;19.30;99.90;;;;;;5021755;28;20491;-80
2023/08/30 09:44:18;;;;;;;4.60;4.30;;;19.50;99.90;;;;;;5020859;28;20471;-79
2023/08/30 09:47:07;;;;;;;4.77;4.37;;;19.60;99.90;;;;;;5020295;28;20471;-83
2023/08/30 09:49:47;;;;;;;4.27;3.90;;;19.80;99.90;;;;;;5019206;28;20478;-82
2023/08/30 09:52:24;;;;;;;4.13;3.83;;;20.10;99.90;;;;;;5016996;28;20483;-84
2023/08/30 09:55:12;;;;;;;3.93;3.63;;;19.80;99.90;;;;;;5019023;28;20455;-81
2023/08/30 09:58:27;;;;;;;4.57;4.27;;;19.90;99.90;;;;;;5017169;28;20479;-79
2023/08/30 10:01:16;;;;;;;5.90;4.00;;;20.00;99.90;;;;;;5009627;28;20494;-80
2023/08/30 10:03:56;;;;;;;3.30;3.10;;;20.70;99.90;;;;;;5018031;28;20883;-79
2023/08/30 10:06:32;;;;;;;3.30;3.10;;;20.70;99.90;;;;;;5020705;28;20473;-81
2023/08/30 10:09:10;;;;;;;3.20;3.00;;;21.10;99.90;;;;;;5019898;28;20443;-79
2023/08/30 10:11:46;;;;;;;2.80;2.70;;;21.30;99.90;;;;;;5016483;28;20443;-80
2023/08/30 10:14:23;;;;;;;3.27;3.07;;;21.60;99.90;;;;;;5018215;28;20450;-81
2023/08/30 10:17:02;;;;;;;3.10;2.90;;;21.80;99.90;;;;;;5017590;28;20471;-79
2023/08/30 10:19:34;;;;;;;2.80;2.70;;;21.30;99.90;;;;;;5018570;28;20451;-79
2023/08/30 10:22:08;;;;;;;2.80;2.60;;;21.80;99.90;;;;;;5017631;28;20494;-80
2023/08/30 10:24:44;;;;;;;2.30;2.20;;;22.10;99.90;;;;;;5017635;28;20452;-80
2023/08/30 10:27:45;;;;;;;2.13;2.03;;;22.10;99.90;;;;;;5024383;28;20463;-79
2023/08/30 10:30:30;;;;;;;2.03;1.93;;;22.30;99.90;;;;;;5034017;28;20439;-84
2023/08/30 10:33:30;;;;;;;2.20;2.10;;;22.40;99.90;;;;;;5033360;28;20444;-80
2023/08/30 10:36:14;;;;;;;3.00;2.20;;;22.80;99.90;;;;;;5031746;28;20451;-80
2023/08/30 10:38:59;;;;;;;2.63;2.40;;;23.00;99.90;;;;;;5026905;28;20577;-81
2023/08/30 10:45:06;;;;;;;1.90;1.80;;;23.50;99.90;;;;;;5019072;28;20446;-80
2023/08/30 10:50:57;;;;;;;2.13;2.03;;;23.70;99.90;;;;;;5026719;28;20458;-81
2023/08/30 10:54:06;;;;;;;2.33;2.23;;;23.70;99.90;;;;;;5029216;28;20458;-80
2023/08/30 10:57:08;;;;;;;2.03;1.93;;;23.80;99.90;;;;;;5024722;28;20480;-80
2023/08/30 10:59:54;;;;;;;2.40;2.30;;;23.90;99.90;;;;;;5019828;28;20461;-80
2023/08/30 11:02:26;;;;;;;2.83;1.90;;;23.30;99.90;;;;;;5018923;28;20456;-79
2023/08/30 11:05:02;;;;;;;2.37;2.20;;;23.50;99.90;;;;;;5021616;28;20526;-78
2023/08/30 11:07:50;;;;;;;2.50;2.30;;;23.40;99.90;;;;;;5017840;28;20475;-79
2023/08/30 11:10:36;;;;;;;2.23;2.03;;;23.20;99.90;;;;;;5017127;28;20451;-79
2023/08/30 11:13:19;;;;;;;2.27;1.80;;;23.60;99.90;;;;;;5016992;28;20474;-78
2023/08/30 11:15:59;;;;;;;2.13;2.00;;;24.10;99.90;;;;;;5018635;28;20461;-79
2023/08/30 11:18:42;;;;;;;2.70;2.50;;;24.40;99.90;;;;;;5018604;28;20530;-80
2023/08/30 11:21:25;;;;;;;2.23;2.13;;;24.50;99.90;;;;;;5018827;28;20477;-79
2023/08/30 11:24:12;;;;;;;1.97;1.87;;;24.70;99.90;;;;;;5017715;28;20455;-84
2023/08/30 11:26:59;;;;;;;2.20;2.10;;;24.60;99.90;;;;;;5018661;28;20475;-79
2023/08/30 11:30:10;;;;;;;2.57;2.43;;;24.70;99.90;;;;;;5017406;28;20455;-80
2023/08/30 11:32:46;;;;;;;2.30;2.20;;;24.10;99.90;;;;;;5015392;28;20454;-79
2023/08/30 11:35:25;;;;;;;2.03;1.97;;;24.20;99.90;;;;;;5016653;28;20482;-79
2023/08/30 11:38:10;;;;;;;2.33;2.23;;;23.80;99.90;;;;;;5017459;28;20478;-83
2023/08/30 11:40:58;;;;;;;3.57;3.00;;;23.20;99.90;;;;;;5016055;28;20502;-79
2023/08/30 11:43:31;;;;;;;3.47;3.27;;;22.50;99.90;;;;;;5015683;28;20455;-82
2023/08/30 11:46:09;;;;;;;3.57;3.17;;;21.60;99.90;;;;;;5015646;28;20447;-79
2023/08/30 11:48:49;;;;;;;3.93;3.73;;;20.80;99.90;;;;;;5015283;28;20742;-80
2023/08/30 11:51:30;;;;;;;3.57;3.40;;;20.50;99.90;;;;;;5015886;28;20457;-80
2023/08/30 11:57:01;;;;;;;3.67;3.47;;;20.00;99.90;;;;;;5014863;28;20554;-79
2023/08/30 11:59:45;;;;;;;4.37;4.07;;;19.60;99.90;;;;;;5017228;28;20455;-79
2023/08/30 12:02:35;;;;;;;3.70;3.50;;;19.50;99.90;;;;;;5017943;28;20529;-79
2023/08/30 12:05:33;;;;;;;3.70;3.40;;;19.30;99.90;;;;;;5018578;28;20460;-79
2023/08/30 12:08:05;;;;;;;4.03;3.73;;;19.20;99.90;;;;;;5016601;28;20511;-79
2023/08/30 12:14:09;;;;;;;3.43;3.23;;;18.90;99.90;;;;;;5011764;28;20431;-80
2023/08/30 12:17:11;;;;;;;3.40;3.20;;;18.70;99.90;;;;;;5016191;28;20475;-79
2023/08/30 12:23:01;;;;;;;3.70;3.50;;;18.30;99.90;;;;;;5011712;28;20438;-80
2023/08/30 12:34:59;;;;;;;4.40;4.20;;;18.70;99.90;;;;;;4885953;29;20522;-81
2023/08/30 12:37:39;;;;;;;3.90;3.70;;;18.70;99.90;;;;;;4975249;28;20568;-81
2023/08/30 12:40:13;;;;;;;4.10;3.90;;;18.60;99.90;;;;;;4980078;28;20484;-80
2023/08/30 12:42:53;;;;;;;4.03;3.77;;;18.60;99.90;;;;;;4979748;28;20455;-82
2023/08/30 12:48:34;;;;;;;3.90;3.50;;;18.80;99.90;;;;;;4974286;28;21007;-82
2023/08/30 12:51:13;;;;;;;3.90;3.60;;;18.60;99.90;;;;;;4981417;28;20504;-81
2023/08/30 12:53:52;;;;;;;4.07;3.77;;;18.50;99.90;;;;;;4980294;28;20456;-82
2023/08/30 12:56:32;;;;;;;5.60;5.10;;;18.80;99.90;;;;;;4981927;28;20504;-81
2023/08/30 12:59:14;;;;;;;4.17;3.97;;;18.80;99.90;;;;;;4982850;28;20479;-81
2023/08/30 13:01:48;;;;;;;4.30;4.00;;;19.00;99.90;;;;;;4990359;28;20477;-79
2023/08/30 13:04:37;;;;;;;4.00;3.70;;;19.20;99.90;;;;;;4990797;28;20449;-81
2023/08/30 13:07:19;;;;;;;4.40;4.00;;;19.20;99.90;;;;;;4984526;28;20487;-80
2023/08/30 13:09:54;;;;;;;4.27;3.97;;;19.30;99.90;;;;;;4982773;28;20473;-81
2023/08/30 13:12:39;;;;;;;4.20;3.80;;;19.40;99.90;;;;;;4981862;28;20433;-79
2023/08/30 13:15:14;;;;;;;5.00;4.53;;;19.50;99.90;;;;;;4981179;28;20504;-83
2023/08/30 13:17:43;;;;;;;4.53;4.23;;;19.60;99.90;;;;;;4983104;28;20980;-82
2023/08/30 13:20:13;;;;;;;4.17;3.87;;;19.60;99.90;;;;;;4983272;28;20453;-83
2023/08/30 13:22:55;;;;;;;4.13;2.87;;;19.40;99.90;;;;;;4987412;28;20850;-83
2023/08/30 13:25:26;;;;;;;2.93;2.83;;;19.90;99.90;;;;;;4999994;28;20483;-80
2023/08/30 13:49:43;;;;;;;4.03;3.73;;;21.70;99.90;;;;;;4996950;28;20480;-80
2023/08/30 13:52:17;;;;;;;4.20;3.80;;;22.10;99.90;;;;;;4978826;28;20788;-83
2023/08/30 13:54:55;;;;;;;4.37;3.30;;;22.50;99.90;;;;;;4979190;28;20448;-80
2023/08/30 13:57:30;;;;;;;3.43;3.17;;;22.60;99.90;;;;;;4982826;28;20896;-79
2023/08/30 14:00:16;;;;;;;;;;;;;;;;;;;;;
2023/08/30 14:02:51;;;;;;;2.90;2.80;;;22.90;99.90;;;;;;4979835;28;20485;-81
2023/08/30 14:05:30;;;;;;;2.90;2.70;;;22.90;99.90;;;;;;4978232;28;20461;-79
2023/08/30 14:08:04;;;;;;;2.93;2.60;;;22.80;99.90;;;;;;4980545;28;20473;-80
2023/08/30 14:10:45;;;;;;;3.60;3.40;;;22.60;99.90;;;;;;4978510;28;20457;-80
2023/08/30 14:13:28;;;;;;;3.37;3.17;;;21.90;99.90;;;;;;4979033;28;20448;-82
2023/08/30 14:16:06;;;;;;;3.07;2.90;;;21.50;99.90;;;;;;4981347;28;20437;-81
2023/08/30 14:18:46;;;;;;;2.43;2.33;;;21.70;99.90;;;;;;4980894;28;20527;-82
2023/08/30 14:21:31;;;;;;;2.30;2.20;;;21.90;99.90;;;;;;4983620;28;20556;-81
2023/08/30 14:37:02;;;;;;;3.50;3.20;;;22.00;99.90;;;;;;4977864;28;20895;-80
2023/08/30 14:39:47;;;;;;;3.10;2.80;;;21.90;99.90;;;;;;4977918;28;20484;-81
2023/08/30 14:42:31;;;;;;;4.07;3.20;;;21.80;99.90;;;;;;4978618;28;20481;-84
2023/08/30 14:45:17;;;;;;;3.50;3.30;;;21.70;99.90;;;;;;4980287;28;21023;-80
2023/08/30 14:48:02;;;;;;;3.07;2.97;;;21.40;99.90;;;;;;4979552;28;21027;-80
2023/08/30 14:50:39;;;;;;;3.90;3.60;;;21.30;99.90;;;;;;4980456;28;20449;-80
2023/08/30 14:59:17;;;;;;;3.40;2.97;;;20.70;99.90;;;;;;4969690;28;20520;-81
2023/08/30 15:02:07;;;;;;;3.00;2.90;;;20.70;99.90;;;;;;4989579;28;20477;-80
2023/08/30 15:04:58;;;;;;;3.67;3.40;;;20.70;99.90;;;;;;4978891;28;20457;-81
2023/08/30 15:08:34;;;;;;;3.60;3.37;;;20.60;99.90;;;;;;5081743;23;20511;-81
2023/08/30 15:11:19;;;;;;;3.13;2.97;;;20.30;99.90;;;;;;4998316;28;20453;-80
2023/08/30 15:14:09;;;;;;;3.47;3.27;;;20.50;99.90;;;;;;5016495;28;20808;-81
2023/08/30 15:19:57;;;;;;;2.90;2.80;;;20.60;99.90;;;;;;5015722;28;20856;-81